Wetterdaten: Mai 2012
Datum Temp Feuchte Luftdruck Regen Wind Richtung Sonnenschein UV Solar Windben
01.05.2012 15,8 C 81 % 1015,8 hPa 1,0 l/m 0,3 km/h NO 7,58 h 2,9 UV-I 343 W/m 3,2 km/h
02.05.2012 15,8 C 85 % 1012,3 hPa 1,2 l/m 1,8 km/h N-NO 9,50 h 2,8 UV-I 428 W/m 4,4 km/h
03.05.2012 13,5 C 82 % 1009,7 hPa 0,2 l/m 0,8 km/h S-SW 3,83 h 2,5 UV-I 294 W/m 3,6 km/h
04.05.2012 14,8 C 70 % 1003,0 hPa 0,2 l/m 4,2 km/h S-SW 5,02 h 2,3 UV-I 300 W/m 8,4 km/h
05.05.2012 6,8 C 96 % 1005,9 hPa 3,0 l/m 2,0 km/h N-NO 0,00 h 0,7 UV-I 52 W/m 8,0 km/h
06.05.2012 6,6 C 96 % 1011,4 hPa 0,6 l/m 0,5 km/h N-NO 0,00 h 0,9 UV-I 88 W/m 4,8 km/h
07.05.2012 6,6 C 93 % 1018,1 hPa 0,6 l/m 0,1 km/h N-NW 1,17 h 1,1 UV-I 133 W/m 2,4 km/h
08.05.2012 13,5 C 73 % 1012,5 hPa 0,2 l/m 2,7 km/h S 8,50 h 2,5 UV-I 379 W/m 5,3 km/h
09.05.2012 15,7 C 88 % 1013,5 hPa 6,0 l/m 6,8 km/h S 3,42 h 1,9 UV-I 232 W/m 11,3 km/h
10.05.2012 19,1 C 82 % 1016,2 hPa 5,6 l/m 11,2 km/h S 2,33 h 2,0 UV-I 214 W/m 18,9 km/h
11.05.2012 15,0 C 87 % 1020,0 hPa 2,2 l/m 2,0 km/h S-SW 3,25 h 2,1 UV-I 200 W/m 16,9 km/h
12.05.2012 7,8 C 76 % 1031,8 hPa 1,0 l/m 3,3 km/h N-NW 2,42 h 2,0 UV-I 236 W/m 11,6 km/h
13.05.2012 5,2 C 80 % 1029,3 hPa 0,0 l/m 0,1 km/h N-NW 5,50 h 2,0 UV-I 293 W/m 1,2 km/h
14.05.2012 11,0 C 65 % 1016,4 hPa 0,0 l/m 5,9 km/h S 11,67 h 2,7 UV-I 368 W/m 14,5 km/h
15.05.2012 7,8 C 87 % 1008,6 hPa 5,0 l/m 3,0 km/h S 2,92 h 1,6 UV-I 209 W/m 8,8 km/h
16.05.2012 5,8 C 81 % 1020,5 hPa 5,6 l/m 1,3 km/h NW 3,25 h 1,9 UV-I 259 W/m 10,5 km/h
17.05.2012 8,8 C 68 % 1019,5 hPa 0,0 l/m 0,4 km/h SO 12,10 h 3,5 UV-I 490 W/m 4,4 km/h
18.05.2012 11,5 C 77 % 1010,7 hPa 0,2 l/m 3,4 km/h S-SO 5,08 h 2,6 UV-I 302 W/m 12,5 km/h
19.05.2012 15,5 C 82 % 1011,1 hPa 0,0 l/m 1,5 km/h S 7,67 h 2,5 UV-I 341 W/m 3,6 km/h
20.05.2012 17,3 C 81 % 1005,4 hPa 0,8 l/m 0,8 km/h N-NO 9,25 h 2,2 UV-I 359 W/m 4,0 km/h
21.05.2012 20,3 C 70 % 999,7 hPa 0,0 l/m 4,3 km/h N-NO 7,18 h 2,6 UV-I 335 W/m 10,1 km/h
22.05.2012 21,0 C 72 % 1008,2 hPa 0,0 l/m 3,5 km/h SO 12,18 h 3,4 UV-I 462 W/m 7,7 km/h
23.05.2012 20,9 C 79 % 1019,7 hPa 0,0 l/m 0,9 km/h N-NO 11,50 h 3,0 UV-I 440 W/m 4,0 km/h
24.05.2012 19,6 C 59 % 1025,4 hPa 0,0 l/m 2,2 km/h NO 12,58 h 3,4 UV-I 477 W/m 10,5 km/h
25.05.2012 17,4 C 48 % 1024,6 hPa 0,0 l/m 2,5 km/h NO 12,33 h 3,5 UV-I 487 W/m 11,7 km/h
26.05.2012 17,5 C 55 % 1021,8 hPa 0,0 l/m 1,8 km/h N-NO 12,92 h 3,3 UV-I 484 W/m 7,2 km/h
27.05.2012 17,6 C 62 % 1017,8 hPa 0,0 l/m 0,6 km/h N-NO 8,17 h 2,9 UV-I 387 W/m 3,6 km/h
28.05.2012 18,7 C 68 % 1012,7 hPa 0,0 l/m 1,4 km/h N-NW 10,08 h 2,6 UV-I 410 W/m 3,6 km/h
29.05.2012 14,2 C 79 % 1013,2 hPa 0,0 l/m 2,8 km/h NW 4,58 h 2,5 UV-I 282 W/m 7,6 km/h
30.05.2012 14,8 C 76 % 1017,3 hPa 0,0 l/m 0,9 km/h NW 6,92 h 2,6 UV-I 330 W/m 5,6 km/h
31.05.2012 14,3 C 90 % 1013,4 hPa 21,8 l/m 5,8 km/h NW 0,25 h 1,4 UV-I 133 W/m 16,1 km/h
Min-Datum 13.05.12 25.05.12 21.05.12 17 Tage 01.05.12 - - - - 01.05.12
Min-Zeit 06:20 14:50 14:35 - 07:00 - - - - 07:05
Minimum -1,3 C 35 % 998,7 hPa - 0,0 km/h - - - - 0,0 km/h
Max-Datum 23.05.12 07.05.12 12.05.12 31.05.12 18.05.12 - 26.05.12 19.05.12 13.05.12 16.05.12
Max-Zeit 15:45 10:25 23:05 18:15 11:35 - 19:50 12:55 12:45 12:25
Maximum 28,5 C 99 % 1033,9 hPa 21,8 l/m 29,9 km/h
S-SO
- 12,83 h 7,0 UV-I 1190 W/m 53,1 km/h
NW
Durchschnitt 13,9 C 77 % 1015,0 hPa #55,2 l/m 2,5 km/h S #203:09 h 2,4 UV-I 314 W/m 7,9 km/h

Durchschnitt Minimum Temp.7,8 C
Durchschnitt Maximum Temp.19,0 C